sensor_id;sensor_type;location;lat;lon;timestamp;temperature;humidity
25248;DHT22;13191;47.472;11.214;2023-08-08T00:02:12;9.10;99.90
25248;DHT22;13191;47.472;11.214;2023-08-08T00:04:38;9.10;99.90
25248;DHT22;13191;47.472;11.214;2023-08-08T00:07:04;9.10;99.90
25248;DHT22;13191;47.472;11.214;2023-08-08T00:09:29;9.00;99.90
25248;DHT22;13191;47.472;11.214;2023-08-08T00:11:55;8.90;99.90
25248;DHT22;13191;47.472;11.214;2023-08-08T00:14:23;9.00;99.90
25248;DHT22;13191;47.472;11.214;2023-08-08T00:16:48;9.00;99.90
25248;DHT22;13191;47.472;11.214;2023-08-08T00:19:14;9.00;99.90
25248;DHT22;13191;47.472;11.214;2023-08-08T00:21:39;9.00;99.90
25248;DHT22;13191;47.472;11.214;2023-08-08T00:24:05;9.00;99.90
25248;DHT22;13191;47.472;11.214;2023-08-08T00:26:31;9.00;99.90
25248;DHT22;13191;47.472;11.214;2023-08-08T00:28:56;9.00;99.90
25248;DHT22;13191;47.472;11.214;2023-08-08T00:31:22;9.00;99.90
25248;DHT22;13191;47.472;11.214;2023-08-08T00:33:47;9.00;99.90
25248;DHT22;13191;47.472;11.214;2023-08-08T00:36:13;8.90;99.90
25248;DHT22;13191;47.472;11.214;2023-08-08T00:38:38;8.80;99.90
25248;DHT22;13191;47.472;11.214;2023-08-08T00:41:04;8.80;99.90
25248;DHT22;13191;47.472;11.214;2023-08-08T00:43:30;8.90;99.90
25248;DHT22;13191;47.472;11.214;2023-08-08T00:45:56;8.90;99.90
25248;DHT22;13191;47.472;11.214;2023-08-08T00:48:22;8.90;99.90
25248;DHT22;13191;47.472;11.214;2023-08-08T00:50:48;8.90;99.90
25248;DHT22;13191;47.472;11.214;2023-08-08T00:53:15;8.90;99.90
25248;DHT22;13191;47.472;11.214;2023-08-08T00:55:41;9.00;99.90
25248;DHT22;13191;47.472;11.214;2023-08-08T00:58:06;9.00;99.90
25248;DHT22;13191;47.472;11.214;2023-08-08T01:00:32;9.00;99.90
25248;DHT22;13191;47.472;11.214;2023-08-08T01:02:58;8.90;99.90
25248;DHT22;13191;47.472;11.214;2023-08-08T01:05:24;8.80;99.90
25248;DHT22;13191;47.472;11.214;2023-08-08T01:08:04;8.60;99.90
25248;DHT22;13191;47.472;11.214;2023-08-08T01:10:39;8.50;99.90
25248;DHT22;13191;47.472;11.214;2023-08-08T01:13:15;8.60;99.90
25248;DHT22;13191;47.472;11.214;2023-08-08T01:15:42;8.80;99.90
25248;DHT22;13191;47.472;11.214;2023-08-08T01:18:09;8.80;99.90
25248;DHT22;13191;47.472;11.214;2023-08-08T01:20:36;8.90;99.90
25248;DHT22;13191;47.472;11.214;2023-08-08T01:23:33;8.90;99.90
25248;DHT22;13191;47.472;11.214;2023-08-08T01:25:59;9.00;99.90
25248;DHT22;13191;47.472;11.214;2023-08-08T01:28:26;9.10;99.90
25248;DHT22;13191;47.472;11.214;2023-08-08T01:30:51;9.10;99.90
25248;DHT22;13191;47.472;11.214;2023-08-08T01:33:17;9.10;99.90
25248;DHT22;13191;47.472;11.214;2023-08-08T01:35:46;9.10;99.90
25248;DHT22;13191;47.472;11.214;2023-08-08T01:38:17;9.00;99.90
25248;DHT22;13191;47.472;11.214;2023-08-08T01:40:44;9.00;99.90
25248;DHT22;13191;47.472;11.214;2023-08-08T01:43:11;8.90;99.90
25248;DHT22;13191;47.472;11.214;2023-08-08T01:45:38;8.90;99.90
25248;DHT22;13191;47.472;11.214;2023-08-08T01:48:08;8.90;99.90
25248;DHT22;13191;47.472;11.214;2023-08-08T01:50:34;8.80;99.90
25248;DHT22;13191;47.472;11.214;2023-08-08T01:52:59;8.80;99.90
25248;DHT22;13191;47.472;11.214;2023-08-08T01:55:26;8.90;99.90
25248;DHT22;13191;47.472;11.214;2023-08-08T01:57:52;8.90;99.90
25248;DHT22;13191;47.472;11.214;2023-08-08T02:00:17;8.90;99.90
25248;DHT22;13191;47.472;11.214;2023-08-08T02:02:43;8.90;99.90
25248;DHT22;13191;47.472;11.214;2023-08-08T02:05:09;8.90;99.90
25248;DHT22;13191;47.472;11.214;2023-08-08T02:07:34;8.80;99.90
25248;DHT22;13191;47.472;11.214;2023-08-08T02:10:00;8.80;99.90
25248;DHT22;13191;47.472;11.214;2023-08-08T02:12:25;8.90;99.90
25248;DHT22;13191;47.472;11.214;2023-08-08T02:14:51;8.90;99.90
25248;DHT22;13191;47.472;11.214;2023-08-08T02:17:16;9.00;99.90
25248;DHT22;13191;47.472;11.214;2023-08-08T02:19:42;8.90;99.90
25248;DHT22;13191;47.472;11.214;2023-08-08T02:22:08;8.90;99.90
25248;DHT22;13191;47.472;11.214;2023-08-08T02:24:34;8.80;99.90
25248;DHT22;13191;47.472;11.214;2023-08-08T02:26:59;8.80;99.90
25248;DHT22;13191;47.472;11.214;2023-08-08T02:29:25;8.70;99.90
25248;DHT22;13191;47.472;11.214;2023-08-08T02:31:50;8.70;99.90
25248;DHT22;13191;47.472;11.214;2023-08-08T02:34:16;8.60;99.90
25248;DHT22;13191;47.472;11.214;2023-08-08T02:36:41;8.50;99.90
25248;DHT22;13191;47.472;11.214;2023-08-08T02:39:07;8.40;99.90
25248;DHT22;13191;47.472;11.214;2023-08-08T02:41:33;8.50;99.90
25248;DHT22;13191;47.472;11.214;2023-08-08T02:43:58;8.50;99.90
25248;DHT22;13191;47.472;11.214;2023-08-08T02:46:24;8.50;99.90
25248;DHT22;13191;47.472;11.214;2023-08-08T02:48:50;8.50;99.90
25248;DHT22;13191;47.472;11.214;2023-08-08T02:51:15;8.50;99.90
25248;DHT22;13191;47.472;11.214;2023-08-08T02:53:41;8.50;99.90
25248;DHT22;13191;47.472;11.214;2023-08-08T02:56:06;8.40;99.90
25248;DHT22;13191;47.472;11.214;2023-08-08T02:58:32;8.30;99.90
25248;DHT22;13191;47.472;11.214;2023-08-08T03:00:57;8.20;99.90
25248;DHT22;13191;47.472;11.214;2023-08-08T03:03:23;8.20;99.90
25248;DHT22;13191;47.472;11.214;2023-08-08T03:05:49;8.30;99.90
25248;DHT22;13191;47.472;11.214;2023-08-08T03:08:15;8.30;99.90
25248;DHT22;13191;47.472;11.214;2023-08-08T03:10:40;8.20;99.90
25248;DHT22;13191;47.472;11.214;2023-08-08T03:13:06;8.10;99.90
25248;DHT22;13191;47.472;11.214;2023-08-08T03:17:58;7.80;99.90
25248;DHT22;13191;47.472;11.214;2023-08-08T03:20:23;7.70;99.90
25248;DHT22;13191;47.472;11.214;2023-08-08T03:22:49;7.70;99.90
25248;DHT22;13191;47.472;11.214;2023-08-08T03:25:15;7.70;99.90
25248;DHT22;13191;47.472;11.214;2023-08-08T03:27:41;7.80;99.90
25248;DHT22;13191;47.472;11.214;2023-08-08T03:30:07;7.70;99.90
25248;DHT22;13191;47.472;11.214;2023-08-08T03:32:32;7.60;99.90
25248;DHT22;13191;47.472;11.214;2023-08-08T03:34:58;7.70;99.90
25248;DHT22;13191;47.472;11.214;2023-08-08T03:37:23;7.80;99.90
25248;DHT22;13191;47.472;11.214;2023-08-08T03:39:49;7.80;99.90
25248;DHT22;13191;47.472;11.214;2023-08-08T03:42:14;7.80;99.90
25248;DHT22;13191;47.472;11.214;2023-08-08T03:44:40;7.80;99.90
25248;DHT22;13191;47.472;11.214;2023-08-08T03:47:06;7.70;99.90
25248;DHT22;13191;47.472;11.214;2023-08-08T03:49:32;7.70;99.90
25248;DHT22;13191;47.472;11.214;2023-08-08T03:51:58;7.70;99.90
25248;DHT22;13191;47.472;11.214;2023-08-08T03:54:23;7.60;99.90
25248;DHT22;13191;47.472;11.214;2023-08-08T03:56:49;7.60;99.90
25248;DHT22;13191;47.472;11.214;2023-08-08T03:59:15;7.70;99.90
25248;DHT22;13191;47.472;11.214;2023-08-08T04:01:40;7.70;99.90
25248;DHT22;13191;47.472;11.214;2023-08-08T04:04:06;7.70;99.90
25248;DHT22;13191;47.472;11.214;2023-08-08T04:06:31;7.60;99.90
25248;DHT22;13191;47.472;11.214;2023-08-08T04:08:57;7.60;99.90
25248;DHT22;13191;47.472;11.214;2023-08-08T04:11:22;7.60;99.90
25248;DHT22;13191;47.472;11.214;2023-08-08T04:16:14;7.60;99.90
25248;DHT22;13191;47.472;11.214;2023-08-08T04:18:40;7.60;99.90
25248;DHT22;13191;47.472;11.214;2023-08-08T04:21:05;7.60;99.90
25248;DHT22;13191;47.472;11.214;2023-08-08T04:35:40;7.20;99.90
25248;DHT22;13191;47.472;11.214;2023-08-08T04:38:06;7.10;99.90
25248;DHT22;13191;47.472;11.214;2023-08-08T04:40:31;7.00;99.90
25248;DHT22;13191;47.472;11.214;2023-08-08T04:42:57;7.00;99.90
25248;DHT22;13191;47.472;11.214;2023-08-08T04:45:22;6.90;99.90
25248;DHT22;13191;47.472;11.214;2023-08-08T04:47:48;6.80;99.90
25248;DHT22;13191;47.472;11.214;2023-08-08T04:50:14;6.80;99.90
25248;DHT22;13191;47.472;11.214;2023-08-08T04:52:39;6.90;99.90
25248;DHT22;13191;47.472;11.214;2023-08-08T04:55:05;7.00;99.90
25248;DHT22;13191;47.472;11.214;2023-08-08T04:57:31;7.00;99.90
25248;DHT22;13191;47.472;11.214;2023-08-08T04:59:57;7.00;99.90
25248;DHT22;13191;47.472;11.214;2023-08-08T05:02:22;7.10;99.90
25248;DHT22;13191;47.472;11.214;2023-08-08T05:04:48;7.00;99.90
25248;DHT22;13191;47.472;11.214;2023-08-08T05:07:14;7.00;99.90
25248;DHT22;13191;47.472;11.214;2023-08-08T05:09:39;7.00;99.90
25248;DHT22;13191;47.472;11.214;2023-08-08T05:12:06;7.10;99.90
25248;DHT22;13191;47.472;11.214;2023-08-08T05:14:31;7.10;99.90
25248;DHT22;13191;47.472;11.214;2023-08-08T05:16:57;7.00;99.90
25248;DHT22;13191;47.472;11.214;2023-08-08T05:19:22;7.00;99.90
25248;DHT22;13191;47.472;11.214;2023-08-08T05:21:49;7.10;99.90
25248;DHT22;13191;47.472;11.214;2023-08-08T05:24:15;7.20;99.90
25248;DHT22;13191;47.472;11.214;2023-08-08T05:26:40;7.30;99.90
25248;DHT22;13191;47.472;11.214;2023-08-08T05:29:06;7.30;99.90
25248;DHT22;13191;47.472;11.214;2023-08-08T05:31:33;7.40;99.90
25248;DHT22;13191;47.472;11.214;2023-08-08T05:33:58;7.40;99.90
25248;DHT22;13191;47.472;11.214;2023-08-08T05:36:24;7.50;99.90
25248;DHT22;13191;47.472;11.214;2023-08-08T05:38:50;7.60;99.90
25248;DHT22;13191;47.472;11.214;2023-08-08T05:41:15;7.70;99.90
25248;DHT22;13191;47.472;11.214;2023-08-08T05:43:41;7.70;99.90
25248;DHT22;13191;47.472;11.214;2023-08-08T05:46:06;7.80;99.90
25248;DHT22;13191;47.472;11.214;2023-08-08T05:48:32;7.90;99.90
25248;DHT22;13191;47.472;11.214;2023-08-08T05:50:57;7.90;99.90
25248;DHT22;13191;47.472;11.214;2023-08-08T05:53:24;8.00;99.90
25248;DHT22;13191;47.472;11.214;2023-08-08T05:55:50;8.00;99.90
25248;DHT22;13191;47.472;11.214;2023-08-08T05:58:15;8.00;99.90
25248;DHT22;13191;47.472;11.214;2023-08-08T06:00:41;8.10;99.90
25248;DHT22;13191;47.472;11.214;2023-08-08T06:03:08;8.20;99.90
25248;DHT22;13191;47.472;11.214;2023-08-08T06:05:33;8.30;99.90
25248;DHT22;13191;47.472;11.214;2023-08-08T06:07:59;8.40;99.90
25248;DHT22;13191;47.472;11.214;2023-08-08T06:10:24;8.50;99.90
25248;DHT22;13191;47.472;11.214;2023-08-08T06:12:50;8.60;99.90
25248;DHT22;13191;47.472;11.214;2023-08-08T06:15:16;8.70;99.90
25248;DHT22;13191;47.472;11.214;2023-08-08T06:17:41;8.80;99.90
25248;DHT22;13191;47.472;11.214;2023-08-08T06:20:10;8.90;99.90
25248;DHT22;13191;47.472;11.214;2023-08-08T06:22:36;9.00;99.90
25248;DHT22;13191;47.472;11.214;2023-08-08T06:25:02;9.10;99.90
25248;DHT22;13191;47.472;11.214;2023-08-08T06:27:28;9.20;99.90
25248;DHT22;13191;47.472;11.214;2023-08-08T06:29:54;9.30;99.90
25248;DHT22;13191;47.472;11.214;2023-08-08T06:32:21;9.30;99.90
25248;DHT22;13191;47.472;11.214;2023-08-08T06:34:46;9.40;99.90
25248;DHT22;13191;47.472;11.214;2023-08-08T06:37:12;9.50;99.90
25248;DHT22;13191;47.472;11.214;2023-08-08T06:39:38;9.60;99.90
25248;DHT22;13191;47.472;11.214;2023-08-08T06:42:05;9.70;99.90
25248;DHT22;13191;47.472;11.214;2023-08-08T06:46:59;9.90;99.90
25248;DHT22;13191;47.472;11.214;2023-08-08T06:49:24;10.00;99.90
25248;DHT22;13191;47.472;11.214;2023-08-08T07:01:33;10.50;99.90
25248;DHT22;13191;47.472;11.214;2023-08-08T07:11:17;10.80;99.90
25248;DHT22;13191;47.472;11.214;2023-08-08T07:13:42;10.90;99.90
25248;DHT22;13191;47.472;11.214;2023-08-08T07:16:08;11.00;99.90
25248;DHT22;13191;47.472;11.214;2023-08-08T07:18:33;11.00;99.90
25248;DHT22;13191;47.472;11.214;2023-08-08T07:20:59;11.10;99.90
25248;DHT22;13191;47.472;11.214;2023-08-08T07:23:24;11.20;99.90
25248;DHT22;13191;47.472;11.214;2023-08-08T07:25:50;11.30;99.90
25248;DHT22;13191;47.472;11.214;2023-08-08T07:28:15;11.30;99.90
25248;DHT22;13191;47.472;11.214;2023-08-08T07:30:41;11.40;99.90
25248;DHT22;13191;47.472;11.214;2023-08-08T07:33:07;11.50;99.90
25248;DHT22;13191;47.472;11.214;2023-08-08T07:35:35;11.60;99.90
25248;DHT22;13191;47.472;11.214;2023-08-08T07:38:01;11.70;99.90
25248;DHT22;13191;47.472;11.214;2023-08-08T07:40:27;11.80;99.90
25248;DHT22;13191;47.472;11.214;2023-08-08T07:42:52;12.00;99.90
25248;DHT22;13191;47.472;11.214;2023-08-08T07:45:18;12.00;99.90
25248;DHT22;13191;47.472;11.214;2023-08-08T07:47:44;12.00;99.90
25248;DHT22;13191;47.472;11.214;2023-08-08T07:50:10;12.10;99.90
25248;DHT22;13191;47.472;11.214;2023-08-08T07:52:36;12.30;99.90
25248;DHT22;13191;47.472;11.214;2023-08-08T07:55:03;12.40;99.90
25248;DHT22;13191;47.472;11.214;2023-08-08T07:57:29;12.60;99.90
25248;DHT22;13191;47.472;11.214;2023-08-08T07:59:56;12.80;99.90
25248;DHT22;13191;47.472;11.214;2023-08-08T08:02:21;12.80;99.90
25248;DHT22;13191;47.472;11.214;2023-08-08T08:04:47;13.10;99.90
25248;DHT22;13191;47.472;11.214;2023-08-08T08:07:13;13.10;99.90
25248;DHT22;13191;47.472;11.214;2023-08-08T08:09:38;13.30;99.90
25248;DHT22;13191;47.472;11.214;2023-08-08T08:12:07;13.40;99.90
25248;DHT22;13191;47.472;11.214;2023-08-08T08:14:33;13.50;99.90
25248;DHT22;13191;47.472;11.214;2023-08-08T08:19:25;13.80;99.90
25248;DHT22;13191;47.472;11.214;2023-08-08T08:21:50;13.80;99.90
25248;DHT22;13191;47.472;11.214;2023-08-08T08:24:16;13.90;99.90
25248;DHT22;13191;47.472;11.214;2023-08-08T08:26:42;14.00;99.90
25248;DHT22;13191;47.472;11.214;2023-08-08T08:29:07;14.10;99.90
25248;DHT22;13191;47.472;11.214;2023-08-08T08:31:33;14.10;99.90
25248;DHT22;13191;47.472;11.214;2023-08-08T08:33:58;14.10;99.90
25248;DHT22;13191;47.472;11.214;2023-08-08T08:36:24;14.20;99.90
25248;DHT22;13191;47.472;11.214;2023-08-08T08:38:51;14.30;99.90
25248;DHT22;13191;47.472;11.214;2023-08-08T08:41:18;14.40;99.90
25248;DHT22;13191;47.472;11.214;2023-08-08T08:43:45;14.50;99.90
25248;DHT22;13191;47.472;11.214;2023-08-08T08:46:12;14.70;99.90
25248;DHT22;13191;47.472;11.214;2023-08-08T08:48:40;14.80;99.90
25248;DHT22;13191;47.472;11.214;2023-08-08T08:51:06;14.90;99.90
25248;DHT22;13191;47.472;11.214;2023-08-08T08:53:32;15.00;99.90
25248;DHT22;13191;47.472;11.214;2023-08-08T08:58:26;15.20;99.90
25248;DHT22;13191;47.472;11.214;2023-08-08T09:00:54;15.20;99.90
25248;DHT22;13191;47.472;11.214;2023-08-08T09:03:19;15.20;99.90
25248;DHT22;13191;47.472;11.214;2023-08-08T09:05:45;15.20;99.90
25248;DHT22;13191;47.472;11.214;2023-08-08T09:08:11;15.20;99.90
25248;DHT22;13191;47.472;11.214;2023-08-08T09:10:37;15.20;99.90
25248;DHT22;13191;47.472;11.214;2023-08-08T09:13:03;15.30;99.90
25248;DHT22;13191;47.472;11.214;2023-08-08T09:15:32;15.30;99.90
25248;DHT22;13191;47.472;11.214;2023-08-08T09:17:58;15.40;99.90
25248;DHT22;13191;47.472;11.214;2023-08-08T09:20:25;15.50;99.90
25248;DHT22;13191;47.472;11.214;2023-08-08T09:22:53;15.50;99.90
25248;DHT22;13191;47.472;11.214;2023-08-08T09:25:19;15.60;99.90
25248;DHT22;13191;47.472;11.214;2023-08-08T09:27:44;15.70;99.90
25248;DHT22;13191;47.472;11.214;2023-08-08T09:30:11;15.80;99.90
25248;DHT22;13191;47.472;11.214;2023-08-08T09:32:37;15.90;99.90
25248;DHT22;13191;47.472;11.214;2023-08-08T09:35:03;15.90;99.90
25248;DHT22;13191;47.472;11.214;2023-08-08T09:37:30;16.00;99.90
25248;DHT22;13191;47.472;11.214;2023-08-08T09:40:00;16.20;99.90
25248;DHT22;13191;47.472;11.214;2023-08-08T09:42:27;16.40;99.90
25248;DHT22;13191;47.472;11.214;2023-08-08T09:44:53;16.60;99.90
25248;DHT22;13191;47.472;11.214;2023-08-08T09:47:21;16.60;99.90
25248;DHT22;13191;47.472;11.214;2023-08-08T09:49:47;16.70;99.90
25248;DHT22;13191;47.472;11.214;2023-08-08T09:52:13;16.70;99.90
25248;DHT22;13191;47.472;11.214;2023-08-08T09:54:40;16.70;99.90
25248;DHT22;13191;47.472;11.214;2023-08-08T09:57:06;16.80;99.90
25248;DHT22;13191;47.472;11.214;2023-08-08T09:59:32;16.70;99.90
25248;DHT22;13191;47.472;11.214;2023-08-08T10:01:59;16.70;99.90
25248;DHT22;13191;47.472;11.214;2023-08-08T10:04:24;16.80;99.90
25248;DHT22;13191;47.472;11.214;2023-08-08T10:06:51;16.80;99.90
25248;DHT22;13191;47.472;11.214;2023-08-08T10:09:17;16.80;99.90
25248;DHT22;13191;47.472;11.214;2023-08-08T10:11:43;16.80;99.90
25248;DHT22;13191;47.472;11.214;2023-08-08T10:14:10;16.70;99.90
25248;DHT22;13191;47.472;11.214;2023-08-08T10:16:37;16.70;99.90
25248;DHT22;13191;47.472;11.214;2023-08-08T10:19:04;16.70;99.90
25248;DHT22;13191;47.472;11.214;2023-08-08T10:21:41;16.70;99.90
25248;DHT22;13191;47.472;11.214;2023-08-08T10:24:10;16.70;99.90
25248;DHT22;13191;47.472;11.214;2023-08-08T10:26:57;16.70;99.90
25248;DHT22;13191;47.472;11.214;2023-08-08T10:29:25;16.80;99.90
25248;DHT22;13191;47.472;11.214;2023-08-08T10:32:01;16.90;99.90
25248;DHT22;13191;47.472;11.214;2023-08-08T10:34:37;16.90;99.90
25248;DHT22;13191;47.472;11.214;2023-08-08T10:37:05;17.10;99.90
25248;DHT22;13191;47.472;11.214;2023-08-08T10:39:34;17.20;99.90
25248;DHT22;13191;47.472;11.214;2023-08-08T10:42:03;17.30;99.90
25248;DHT22;13191;47.472;11.214;2023-08-08T10:44:28;17.40;99.90
25248;DHT22;13191;47.472;11.214;2023-08-08T10:46:54;17.40;99.90
25248;DHT22;13191;47.472;11.214;2023-08-08T10:49:21;17.40;99.90
25248;DHT22;13191;47.472;11.214;2023-08-08T10:51:48;17.40;99.90
25248;DHT22;13191;47.472;11.214;2023-08-08T10:54:22;17.40;99.90
25248;DHT22;13191;47.472;11.214;2023-08-08T10:56:50;17.40;99.90
25248;DHT22;13191;47.472;11.214;2023-08-08T10:59:26;17.50;99.90
25248;DHT22;13191;47.472;11.214;2023-08-08T11:01:53;17.60;99.90
25248;DHT22;13191;47.472;11.214;2023-08-08T11:04:23;17.60;99.90
25248;DHT22;13191;47.472;11.214;2023-08-08T11:06:49;17.60;99.90
25248;DHT22;13191;47.472;11.214;2023-08-08T11:09:16;17.70;99.90
25248;DHT22;13191;47.472;11.214;2023-08-08T11:11:43;17.80;99.90
25248;DHT22;13191;47.472;11.214;2023-08-08T11:14:14;17.80;99.90
25248;DHT22;13191;47.472;11.214;2023-08-08T11:16:40;17.80;99.90
25248;DHT22;13191;47.472;11.214;2023-08-08T11:19:06;17.80;99.90
25248;DHT22;13191;47.472;11.214;2023-08-08T11:21:41;17.90;99.90
25248;DHT22;13191;47.472;11.214;2023-08-08T11:24:07;18.00;99.90
25248;DHT22;13191;47.472;11.214;2023-08-08T11:26:34;18.00;99.90
25248;DHT22;13191;47.472;11.214;2023-08-08T11:29:01;18.10;99.90
25248;DHT22;13191;47.472;11.214;2023-08-08T11:31:29;18.20;99.90
25248;DHT22;13191;47.472;11.214;2023-08-08T11:33:55;18.30;99.90
25248;DHT22;13191;47.472;11.214;2023-08-08T11:36:21;18.40;99.90
25248;DHT22;13191;47.472;11.214;2023-08-08T11:38:48;18.30;99.90
25248;DHT22;13191;47.472;11.214;2023-08-08T11:41:16;18.20;99.90
25248;DHT22;13191;47.472;11.214;2023-08-08T11:43:43;18.20;99.90
25248;DHT22;13191;47.472;11.214;2023-08-08T11:46:12;18.40;99.90
25248;DHT22;13191;47.472;11.214;2023-08-08T11:48:38;18.50;99.90
25248;DHT22;13191;47.472;11.214;2023-08-08T11:51:07;18.50;99.90
25248;DHT22;13191;47.472;11.214;2023-08-08T11:53:35;18.50;99.90
25248;DHT22;13191;47.472;11.214;2023-08-08T11:56:02;18.60;99.90
25248;DHT22;13191;47.472;11.214;2023-08-08T11:58:29;18.70;99.90
25248;DHT22;13191;47.472;11.214;2023-08-08T12:00:57;18.70;99.90
25248;DHT22;13191;47.472;11.214;2023-08-08T12:03:25;18.80;99.90
25248;DHT22;13191;47.472;11.214;2023-08-08T12:05:51;18.80;99.90
25248;DHT22;13191;47.472;11.214;2023-08-08T12:08:20;18.90;99.90
25248;DHT22;13191;47.472;11.214;2023-08-08T12:10:49;19.00;99.90
25248;DHT22;13191;47.472;11.214;2023-08-08T12:13:20;19.10;99.90
25248;DHT22;13191;47.472;11.214;2023-08-08T12:15:47;19.20;99.90
25248;DHT22;13191;47.472;11.214;2023-08-08T12:18:16;19.30;99.90
25248;DHT22;13191;47.472;11.214;2023-08-08T12:20:43;19.40;99.90
25248;DHT22;13191;47.472;11.214;2023-08-08T12:23:08;19.50;99.90
25248;DHT22;13191;47.472;11.214;2023-08-08T12:25:34;19.70;99.90
25248;DHT22;13191;47.472;11.214;2023-08-08T12:27:59;19.80;99.90
25248;DHT22;13191;47.472;11.214;2023-08-08T12:30:25;20.00;99.90
25248;DHT22;13191;47.472;11.214;2023-08-08T12:32:50;20.20;99.90
25248;DHT22;13191;47.472;11.214;2023-08-08T12:35:16;20.30;99.90
25248;DHT22;13191;47.472;11.214;2023-08-08T12:37:42;20.50;99.90
25248;DHT22;13191;47.472;11.214;2023-08-08T12:40:08;20.60;99.90
25248;DHT22;13191;47.472;11.214;2023-08-08T12:42:33;20.70;99.90
25248;DHT22;13191;47.472;11.214;2023-08-08T12:44:59;20.90;99.90
25248;DHT22;13191;47.472;11.214;2023-08-08T12:47:25;21.00;99.90
25248;DHT22;13191;47.472;11.214;2023-08-08T12:49:50;21.00;99.90
25248;DHT22;13191;47.472;11.214;2023-08-08T12:52:16;21.20;99.90
25248;DHT22;13191;47.472;11.214;2023-08-08T12:54:43;21.20;99.90
25248;DHT22;13191;47.472;11.214;2023-08-08T12:57:08;21.30;99.90
25248;DHT22;13191;47.472;11.214;2023-08-08T12:59:34;21.60;99.90
25248;DHT22;13191;47.472;11.214;2023-08-08T13:01:59;21.70;99.90
25248;DHT22;13191;47.472;11.214;2023-08-08T13:04:25;21.80;99.90
25248;DHT22;13191;47.472;11.214;2023-08-08T13:06:51;21.80;99.90
25248;DHT22;13191;47.472;11.214;2023-08-08T13:11:42;21.90;99.90
25248;DHT22;13191;47.472;11.214;2023-08-08T13:14:08;21.90;99.90
25248;DHT22;13191;47.472;11.214;2023-08-08T13:16:33;22.00;99.90
25248;DHT22;13191;47.472;11.214;2023-08-08T13:18:59;22.10;99.90
25248;DHT22;13191;47.472;11.214;2023-08-08T13:21:24;22.20;99.90
25248;DHT22;13191;47.472;11.214;2023-08-08T13:23:50;22.30;99.90
25248;DHT22;13191;47.472;11.214;2023-08-08T13:26:16;22.40;99.90
25248;DHT22;13191;47.472;11.214;2023-08-08T13:28:41;22.50;99.90
25248;DHT22;13191;47.472;11.214;2023-08-08T13:31:08;22.50;99.90
25248;DHT22;13191;47.472;11.214;2023-08-08T13:33:34;22.60;99.90
25248;DHT22;13191;47.472;11.214;2023-08-08T13:36:00;22.50;99.90
25248;DHT22;13191;47.472;11.214;2023-08-08T13:38:25;22.50;99.90
25248;DHT22;13191;47.472;11.214;2023-08-08T13:40:51;22.50;99.90
25248;DHT22;13191;47.472;11.214;2023-08-08T13:43:17;22.60;99.90
25248;DHT22;13191;47.472;11.214;2023-08-08T13:45:42;22.60;99.90
25248;DHT22;13191;47.472;11.214;2023-08-08T13:48:08;22.70;99.90
25248;DHT22;13191;47.472;11.214;2023-08-08T13:50:33;22.70;99.90
25248;DHT22;13191;47.472;11.214;2023-08-08T13:52:59;22.70;99.90
25248;DHT22;13191;47.472;11.214;2023-08-08T13:55:24;22.70;99.90
25248;DHT22;13191;47.472;11.214;2023-08-08T13:57:52;22.60;99.90
25248;DHT22;13191;47.472;11.214;2023-08-08T14:00:20;22.60;99.90
25248;DHT22;13191;47.472;11.214;2023-08-08T14:02:45;22.70;99.90
25248;DHT22;13191;47.472;11.214;2023-08-08T14:07:37;23.10;99.90
25248;DHT22;13191;47.472;11.214;2023-08-08T14:10:03;23.20;99.90
25248;DHT22;13191;47.472;11.214;2023-08-08T14:12:29;23.20;99.90
25248;DHT22;13191;47.472;11.214;2023-08-08T14:14:55;23.30;99.90
25248;DHT22;13191;47.472;11.214;2023-08-08T14:24:40;23.70;99.90
25248;DHT22;13191;47.472;11.214;2023-08-08T14:27:05;23.90;99.90
25248;DHT22;13191;47.472;11.214;2023-08-08T14:29:31;23.90;99.90
25248;DHT22;13191;47.472;11.214;2023-08-08T14:31:56;23.80;99.90
25248;DHT22;13191;47.472;11.214;2023-08-08T14:34:42;23.70;99.90
25248;DHT22;13191;47.472;11.214;2023-08-08T14:37:08;23.70;99.90
25248;DHT22;13191;47.472;11.214;2023-08-08T14:39:33;23.70;99.90
25248;DHT22;13191;47.472;11.214;2023-08-08T14:41:59;23.70;99.90
25248;DHT22;13191;47.472;11.214;2023-08-08T14:44:25;23.60;99.90
25248;DHT22;13191;47.472;11.214;2023-08-08T14:46:50;23.70;99.90
25248;DHT22;13191;47.472;11.214;2023-08-08T14:49:16;23.70;99.90
25248;DHT22;13191;47.472;11.214;2023-08-08T14:51:42;23.60;99.90
25248;DHT22;13191;47.472;11.214;2023-08-08T14:54:08;23.60;99.90
25248;DHT22;13191;47.472;11.214;2023-08-08T14:56:33;23.60;99.90
25248;DHT22;13191;47.472;11.214;2023-08-08T14:58:59;23.60;99.90
25248;DHT22;13191;47.472;11.214;2023-08-08T15:01:24;23.60;99.90
25248;DHT22;13191;47.472;11.214;2023-08-08T15:03:50;23.50;99.90
25248;DHT22;13191;47.472;11.214;2023-08-08T15:06:16;23.40;99.90
25248;DHT22;13191;47.472;11.214;2023-08-08T15:08:42;23.50;99.90
25248;DHT22;13191;47.472;11.214;2023-08-08T15:11:08;23.70;99.90
25248;DHT22;13191;47.472;11.214;2023-08-08T15:13:34;23.90;99.90
25248;DHT22;13191;47.472;11.214;2023-08-08T15:16:00;24.10;99.90
25248;DHT22;13191;47.472;11.214;2023-08-08T15:18:25;24.10;99.90
25248;DHT22;13191;47.472;11.214;2023-08-08T15:20:51;24.00;99.90
25248;DHT22;13191;47.472;11.214;2023-08-08T15:23:17;23.90;99.90
25248;DHT22;13191;47.472;11.214;2023-08-08T15:25:42;23.80;99.90
25248;DHT22;13191;47.472;11.214;2023-08-08T15:28:09;23.90;99.90
25248;DHT22;13191;47.472;11.214;2023-08-08T15:30:34;24.00;99.90
25248;DHT22;13191;47.472;11.214;2023-08-08T15:33:00;24.10;99.90
25248;DHT22;13191;47.472;11.214;2023-08-08T15:35:25;24.20;99.90
25248;DHT22;13191;47.472;11.214;2023-08-08T15:37:51;24.30;99.90
25248;DHT22;13191;47.472;11.214;2023-08-08T15:40:17;24.40;99.90
25248;DHT22;13191;47.472;11.214;2023-08-08T15:42:43;24.60;99.90
25248;DHT22;13191;47.472;11.214;2023-08-08T15:45:10;24.70;99.90
25248;DHT22;13191;47.472;11.214;2023-08-08T15:47:35;24.80;99.90
25248;DHT22;13191;47.472;11.214;2023-08-08T15:50:01;24.70;99.90
25248;DHT22;13191;47.472;11.214;2023-08-08T15:52:27;24.60;99.90
25248;DHT22;13191;47.472;11.214;2023-08-08T15:54:53;24.60;99.90
25248;DHT22;13191;47.472;11.214;2023-08-08T15:57:18;24.60;99.90
25248;DHT22;13191;47.472;11.214;2023-08-08T15:59:45;24.60;99.90
25248;DHT22;13191;47.472;11.214;2023-08-08T16:02:11;24.60;99.90
25248;DHT22;13191;47.472;11.214;2023-08-08T16:04:36;24.50;99.90
25248;DHT22;13191;47.472;11.214;2023-08-08T16:07:02;24.30;99.90
25248;DHT22;13191;47.472;11.214;2023-08-08T16:09:28;24.00;99.90
25248;DHT22;13191;47.472;11.214;2023-08-08T16:11:54;24.00;99.90